createdAt,value
2019-03-27T00:04:50.249Z,0.90
2019-03-27T00:09:54.306Z,0.80
2019-03-27T00:15:11.581Z,0.80
2019-03-27T00:20:08.314Z,0.70
2019-03-27T00:25:11.717Z,0.70
2019-03-27T00:30:15.208Z,0.60
2019-03-27T00:35:19.015Z,0.50
2019-03-27T00:40:24.098Z,0.50
2019-03-27T00:45:27.472Z,0.40
2019-03-27T00:50:30.868Z,0.30
2019-03-27T00:55:34.220Z,0.30
2019-03-27T01:00:47.689Z,0.30
2019-03-27T01:05:51.212Z,0.30
2019-03-27T01:10:56.210Z,0.40
2019-03-27T01:15:59.876Z,0.30
2019-03-27T01:21:04.968Z,0.30
2019-03-27T01:26:08.380Z,0.20
2019-03-27T01:31:11.784Z,0.20
2019-03-27T01:36:16.807Z,0.20
2019-03-27T01:41:21.663Z,0.10
2019-03-27T01:46:25.500Z,0.10
2019-03-27T01:51:28.857Z,0.00
2019-03-27T01:56:34.005Z,0.00
2019-03-27T02:01:37.974Z,0.00
2019-03-27T02:06:41.367Z,0.00
2019-03-27T02:11:44.697Z,-0.10
2019-03-27T02:28:15.756Z,-0.20
2019-03-27T02:33:21.041Z,-0.20
2019-03-27T02:38:24.400Z,-0.20
2019-03-27T02:43:27.836Z,-0.20
2019-03-27T02:48:31.911Z,-0.30
2019-03-27T02:53:36.586Z,-0.40
2019-03-27T02:58:40.306Z,-0.40
2019-03-27T03:03:44.410Z,-0.50
2019-03-27T03:08:48.647Z,-0.50
2019-03-27T03:13:53.071Z,-0.60
2019-03-27T03:18:57.250Z,-0.60
2019-03-27T03:24:00.567Z,-0.70
2019-03-27T03:29:04.000Z,-0.70
2019-03-27T03:34:10.884Z,-0.70
2019-03-27T03:39:14.247Z,-0.70
2019-03-27T03:44:18.650Z,-0.70
2019-03-27T03:49:21.992Z,-0.70
2019-03-27T03:54:26.100Z,-0.70
2019-03-27T03:59:29.437Z,-0.70
2019-03-27T04:04:33.124Z,-0.70
2019-03-27T04:09:37.681Z,-0.70
2019-03-27T04:14:41.199Z,-0.80
2019-03-27T04:19:44.598Z,-0.80
2019-03-27T04:24:49.721Z,-0.80
2019-03-27T04:29:53.634Z,-0.80
2019-03-27T04:34:57.350Z,-0.80
2019-03-27T04:40:00.772Z,-0.80
2019-03-27T04:45:06.503Z,-0.80
2019-03-27T04:50:09.900Z,-0.80
2019-03-27T04:55:13.288Z,-0.70
2019-03-27T05:00:18.717Z,-0.70
2019-03-27T05:05:22.428Z,-0.70
2019-03-27T05:10:26.941Z,-0.60
2019-03-27T05:15:32.960Z,-0.50
2019-03-27T05:20:36.375Z,-0.40
2019-03-27T05:25:40.042Z,-0.30
2019-03-27T05:30:43.439Z,-0.30
2019-03-27T05:35:48.397Z,-0.10
2019-03-27T05:40:51.719Z,0.00
2019-03-27T05:45:55.037Z,0.10
2019-03-27T05:50:58.337Z,0.20
2019-03-27T05:56:02.181Z,0.40
2019-03-27T06:01:05.583Z,0.60
2019-03-27T06:06:09.258Z,0.80
2019-03-27T06:11:12.574Z,0.90
2019-03-27T06:16:16.339Z,1.20
2019-03-27T06:21:19.719Z,1.90
2019-03-27T06:26:31.829Z,2.00
2019-03-27T06:31:35.364Z,2.00
2019-03-27T06:36:40.005Z,2.00
2019-03-27T06:41:43.417Z,2.20
2019-03-27T06:46:50.501Z,2.40
2019-03-27T06:51:53.817Z,3.00
2019-03-27T06:57:01.017Z,3.00
2019-03-27T07:02:06.333Z,3.00
2019-03-27T07:07:11.462Z,3.00
2019-03-27T07:12:20.955Z,3.20
2019-03-27T07:17:20.662Z,3.40
2019-03-27T07:22:24.086Z,3.70
2019-03-27T07:27:30.174Z,4.70
2019-03-27T07:32:35.008Z,4.60
2019-03-27T07:37:45.474Z,4.40
2019-03-27T07:42:49.195Z,4.30
2019-03-27T07:47:54.297Z,4.30
2019-03-27T07:52:58.676Z,4.40
2019-03-27T07:58:03.510Z,4.40
2019-03-27T08:03:07.291Z,4.50
2019-03-27T08:08:11.728Z,4.60
2019-03-27T08:13:15.652Z,4.70
2019-03-27T08:18:19.897Z,4.80
2019-03-27T08:23:26.934Z,5.00
2019-03-27T08:28:30.801Z,5.30
2019-03-27T08:33:34.114Z,5.90
2019-03-27T08:38:39.278Z,6.80
2019-03-27T08:43:44.334Z,10.10
2019-03-27T08:48:48.598Z,13.20
2019-03-27T08:53:58.720Z,15.20
2019-03-27T08:59:07.290Z,16.20
2019-03-27T09:04:10.679Z,17.30
2019-03-27T09:09:14.285Z,17.70
2019-03-27T09:14:18.330Z,18.00
2019-03-27T09:19:34.510Z,17.60
2019-03-27T09:24:30.394Z,17.70
2019-03-27T09:29:34.727Z,17.80
2019-03-27T09:34:38.040Z,17.70
2019-03-27T09:39:44.101Z,17.50
2019-03-27T09:44:49.563Z,17.30
2019-03-27T09:49:52.926Z,17.00
2019-03-27T09:54:57.602Z,16.70
2019-03-27T10:00:02.663Z,16.80
2019-03-27T10:05:09.336Z,17.00
2019-03-27T10:10:12.647Z,17.50
2019-03-27T10:15:18.127Z,18.30
2019-03-27T10:20:21.440Z,19.60
2019-03-27T10:25:26.680Z,23.60
2019-03-27T10:30:30.843Z,29.10
2019-03-27T10:35:34.345Z,33.60
2019-03-27T10:40:38.947Z,34.60
2019-03-27T10:45:42.288Z,32.00
2019-03-27T10:50:46.794Z,29.40
2019-03-27T10:55:50.137Z,27.50
2019-03-27T11:00:53.676Z,27.10
2019-03-27T11:05:57.144Z,28.00
2019-03-27T11:11:00.609Z,25.10
2019-03-27T11:16:04.612Z,26.20
2019-03-27T11:21:07.981Z,27.00
2019-03-27T11:26:14.009Z,25.10
2019-03-27T11:31:21.634Z,22.90
2019-03-27T11:36:27.484Z,20.20
2019-03-27T11:41:34.499Z,18.20
2019-03-27T11:46:41.304Z,17.50
2019-03-27T11:51:45.673Z,17.50
2019-03-27T11:56:54.715Z,17.90
2019-03-27T12:02:00.039Z,17.40
2019-03-27T12:07:07.279Z,16.80
2019-03-27T12:12:13.739Z,16.10
2019-03-27T12:17:20.252Z,15.70
2019-03-27T12:22:28.124Z,18.50
2019-03-27T12:27:31.996Z,27.80
2019-03-27T12:32:36.235Z,34.40
2019-03-27T12:37:39.693Z,38.20
2019-03-27T12:42:43.667Z,38.80
2019-03-27T12:47:49.114Z,40.20
2019-03-27T12:52:54.262Z,40.70
2019-03-27T12:58:01.814Z,41.40
2019-03-27T13:03:07.672Z,40.80
2019-03-27T13:08:14.488Z,41.80
2019-03-27T13:13:20.720Z,42.20
2019-03-27T13:18:26.305Z,41.10
2019-03-27T13:23:32.586Z,40.90
2019-03-27T13:28:48.110Z,41.10
2019-03-27T13:33:43.114Z,40.90
2019-03-27T13:38:46.553Z,35.10
2019-03-27T13:43:58.848Z,26.40
2019-03-27T13:49:05.134Z,21.50
2019-03-27T13:54:14.156Z,17.90
2019-03-27T13:59:19.520Z,15.80
2019-03-27T14:04:23.568Z,14.50
2019-03-27T14:09:35.202Z,13.70
2019-03-27T14:14:49.603Z,13.20
2019-03-27T14:19:44.631Z,12.90
2019-03-27T14:24:54.374Z,12.60
2019-03-27T14:29:58.900Z,12.30
2019-03-27T14:35:03.354Z,12.20
2019-03-27T14:40:14.743Z,12.00
2019-03-27T14:45:17.865Z,11.90
2019-03-27T14:50:25.019Z,11.70
2019-03-27T14:55:32.895Z,11.50
2019-03-27T15:00:44.256Z,11.60
2019-03-27T15:16:25.782Z,11.50
2019-03-27T15:21:30.548Z,11.40
2019-03-27T15:26:34.589Z,11.40
2019-03-27T15:31:40.039Z,11.50
2019-03-27T15:36:47.869Z,11.40
2019-03-27T15:47:26.506Z,11.00
2019-03-27T15:52:41.073Z,10.80
2019-03-27T15:57:43.006Z,10.70
2019-03-27T16:02:47.875Z,10.60
2019-03-27T16:07:57.488Z,10.50
2019-03-27T16:13:05.127Z,10.40
2019-03-27T16:18:12.561Z,10.30
2019-03-27T16:23:19.931Z,10.20
2019-03-27T16:28:26.993Z,10.10
2019-03-27T16:33:32.920Z,10.10
2019-03-27T16:38:38.406Z,10.00
2019-03-27T16:43:45.298Z,9.90
2019-03-27T16:48:51.835Z,9.80
2019-03-27T16:53:55.163Z,9.80
2019-03-27T16:58:58.842Z,9.70
2019-03-27T17:04:03.143Z,9.70
2019-03-27T17:09:08.750Z,9.60
2019-03-27T17:14:12.128Z,9.60
2019-03-27T17:19:15.646Z,9.50
2019-03-27T17:24:19.846Z,9.50
2019-03-27T17:29:23.779Z,9.50
2019-03-27T17:34:27.285Z,9.40
2019-03-27T17:39:32.268Z,9.40
2019-03-27T17:44:37.381Z,9.40
2019-03-27T17:49:41.065Z,9.30
2019-03-27T17:54:45.596Z,9.30
2019-03-27T17:59:49.278Z,9.30
2019-03-27T18:04:52.724Z,9.30
2019-03-27T18:09:58.526Z,9.30
2019-03-27T18:15:05.865Z,9.20
2019-03-27T18:20:09.568Z,9.20
2019-03-27T18:25:14.511Z,9.10
2019-03-27T18:30:21.448Z,9.10
2019-03-27T18:35:28.718Z,9.00
2019-03-27T18:40:54.577Z,9.00
2019-03-27T18:46:01.296Z,8.90
2019-03-27T18:51:07.525Z,8.90
2019-03-27T18:56:12.378Z,8.80
2019-03-27T19:01:17.689Z,8.70
2019-03-27T19:11:58.235Z,8.60
2019-03-27T19:17:02.386Z,8.60
2019-03-27T19:22:08.879Z,8.60
2019-03-27T19:27:25.892Z,8.60
2019-03-27T19:32:37.665Z,8.70
2019-03-27T19:37:41.023Z,8.70
2019-03-27T19:42:45.220Z,8.60
2019-03-27T19:47:51.633Z,8.60
2019-03-27T19:52:58.189Z,8.50
2019-03-27T19:58:02.473Z,8.50
2019-03-27T20:03:08.521Z,8.50
2019-03-27T20:08:11.899Z,8.50
2019-03-27T20:13:15.359Z,8.50
2019-03-27T20:18:22.043Z,8.50
2019-03-27T20:23:25.552Z,8.50
2019-03-27T20:28:31.922Z,8.50
2019-03-27T20:33:38.068Z,8.50
2019-03-27T20:38:41.433Z,8.50
2019-03-27T20:43:46.116Z,8.50
2019-03-27T20:48:58.956Z,8.40
2019-03-27T20:54:02.605Z,8.40
2019-03-27T20:59:08.253Z,8.40
2019-03-27T21:04:13.109Z,8.40
2019-03-27T21:09:19.561Z,8.40
2019-03-27T21:14:23.041Z,8.40
2019-03-27T21:19:29.621Z,8.40
2019-03-27T21:24:39.185Z,8.30
2019-03-27T21:29:42.562Z,8.30
2019-03-27T21:34:54.199Z,8.30
2019-03-27T21:40:17.913Z,8.30
2019-03-27T21:45:23.895Z,8.30
2019-03-27T21:50:31.118Z,8.30
2019-03-27T21:55:43.154Z,8.20
2019-03-27T22:00:59.613Z,8.20
2019-03-27T22:06:00.470Z,8.20
2019-03-27T22:11:04.743Z,8.20
2019-03-27T22:16:10.131Z,8.20
2019-03-27T22:21:15.906Z,8.20
2019-03-27T22:26:21.111Z,8.20
2019-03-27T22:31:36.972Z,8.20
2019-03-27T22:36:42.512Z,8.20
2019-03-27T22:41:49.744Z,8.20
2019-03-27T22:46:54.921Z,8.20
2019-03-27T22:51:59.011Z,8.20
2019-03-27T22:57:04.391Z,8.20
2019-03-27T23:02:10.341Z,8.20
2019-03-27T23:07:22.603Z,8.20
2019-03-27T23:12:36.194Z,8.20
